This is the latest recevied weather packets stored in our database for station/object DG3RAP-11. If no packets are shown the sender has not sent any weather packets the latest 10 day(s).
| Time | Temp. | Humidity | Pressure | Rain* | Wind** | Luminosity | Snow |
|---|---|---|---|---|---|---|---|
| 1778230803 | 14.44° C | 71% | 1017.1 hPa | 0 mm | - | - | - |
| 1778230444 | 15° C | 66% | 1017.1 hPa | 0 mm | - | - | - |
| 1778229903 | 13.89° C | 72% | 1017.2 hPa | 0 mm | - | - | - |
| 1778229363 | 13.33° C | 74% | 1017.3 hPa | 0 mm | - | - | - |
| 1778228823 | 13.33° C | 76% | 1017.3 hPa | 0 mm | - | - | - |
| 1778228283 | 12.22° C | 78% | 1017.3 hPa | 0 mm | - | - | - |
| 1778227744 | 12.78° C | 80% | 1017.5 hPa | 0 mm | - | - | - |
| 1778227203 | 11.67° C | 83% | 1017.4 hPa | 0 mm | - | - | - |
| 1778226843 | 11.67° C | 85% | 1017.4 hPa | 0 mm | - | - | - |
| 1778226303 | 12.78° C | 82% | 1017.3 hPa | 0 mm | - | - | - |
| 1778225763 | 11.11° C | 86% | 1017.2 hPa | 0 mm | - | - | - |
| 1778225224 | 10.56° C | 87% | 1017.2 hPa | 0 mm | - | - | - |
| 1778224683 | 10.56° C | 88% | 1017.1 hPa | 0 mm | - | - | - |
| 1778224143 | 9.44° C | 92% | 1017.3 hPa | 0 mm | - | - | - |
| 1778223603 | 10° C | 90% | 1017.1 hPa | 0 mm | - | - | - |
| 1778223243 | 8.89° C | 94% | 1016.9 hPa | 0 mm | - | - | - |
| 1778222703 | 8.33° C | 96% | 1016.9 hPa | 0 mm | - | - | - |
| 1778222163 | 8.89° C | 92% | 1016.8 hPa | 0 mm | - | - | - |
| 1778221623 | 8.33° C | 95% | 1016.8 hPa | 0 mm | - | - | - |
| 1778221083 | 8.33° C | 94% | 1016.8 hPa | 0 mm | - | - | - |
| 1778220543 | 7.78° C | 94% | 1016.7 hPa | 0 mm | - | - | - |
| 1778220003 | 8.33° C | 91% | 1016.7 hPa | 0 mm | - | - | - |
| 1778219643 | 8.33° C | 90% | 1016.6 hPa | 0 mm | - | - | - |
| 1778219103 | 7.22° C | 89% | 1016.5 hPa | 0 mm | - | - | - |
| 1778218563 | 8.33° C | 92% | 1016.6 hPa | 0 mm | - | - | - |
* Rain latest hour (hover to see other rain measurements)
** Current wind speed in m/s (hover to see current wind gust speed)